Time;durP1;ratioP1;P1;durP2;ratioP2;P2;SDS_P1;SDS_P2;PMS_P1;PMS_P2;Temp;Humidity;BMP_temperature;BMP_pressure;BME280_temperature;BME280_humidity;BME280_pressure;Samples;Min_cycle;Max_cycle;Signal;HPM_P1;HPM_P2
2023/05/15 00:00:05;;;;;;;9.93;8.57;;;13.80;95.10;;;13.68;63.71;100663.16;5014069;28;20227;-71
2023/05/15 00:02:38;;;;;;;9.57;7.97;;;14.00;94.90;;;13.64;63.95;100659.16;5014181;28;20198;-71
2023/05/15 00:05:12;;;;;;;9.30;8.40;;;13.90;95.10;;;13.51;63.69;100650.03;5014187;28;20270;-71
2023/05/15 00:07:46;;;;;;;8.47;7.77;;;13.80;95.00;;;13.47;64.25;100657.63;5014332;28;20195;-71
2023/05/15 00:10:20;;;;;;;8.93;8.10;;;13.70;95.10;;;13.54;63.33;100645.13;5013997;28;20286;-71
2023/05/15 00:12:53;;;;;;;10.20;7.87;;;13.80;95.00;;;13.56;64.51;100644.97;5014074;28;20203;-71
2023/05/15 00:15:26;;;;;;;9.77;8.00;;;13.90;95.20;;;13.43;64.59;100642.03;5013750;28;20644;-71
2023/05/15 00:18:00;;;;;;;10.63;8.47;;;13.70;95.10;;;13.33;64.15;100634.22;5013961;28;20242;-71
2023/05/15 00:20:34;;;;;;;8.43;7.63;;;13.60;95.20;;;13.26;64.08;100635.97;5013779;28;20607;-71
2023/05/15 00:23:07;;;;;;;8.43;7.73;;;13.40;95.60;;;13.17;64.27;100632.50;5013555;28;20620;-71
2023/05/15 00:25:40;;;;;;;10.87;8.27;;;13.40;95.60;;;13.17;64.66;100637.03;5013855;28;20200;-71
2023/05/15 00:28:13;;;;;;;9.53;8.10;;;13.40;95.80;;;13.16;64.97;100638.06;5013855;28;20203;-71
2023/05/15 00:30:47;;;;;;;8.83;7.83;;;13.40;95.60;;;13.20;64.96;100642.91;5013720;28;20219;-71
2023/05/15 00:33:20;;;;;;;9.40;8.53;;;13.50;95.60;;;13.11;64.26;100640.47;5013522;28;20219;-71
2023/05/15 00:35:53;;;;;;;9.40;8.40;;;13.40;95.60;;;13.03;65.58;100629.72;5014009;28;20191;-71
2023/05/15 00:38:26;;;;;;;9.40;8.20;;;13.30;95.90;;;12.95;64.85;100633.28;5013485;28;20246;-71
2023/05/15 00:41:01;;;;;;;9.37;8.47;;;13.30;95.90;;;12.83;66.11;100636.56;5013581;28;20239;-71
2023/05/15 00:43:36;;;;;;;9.27;8.27;;;13.10;96.20;;;12.85;65.72;100634.53;5013404;28;20652;-71
2023/05/15 00:46:12;;;;;;;9.47;8.43;;;13.10;96.50;;;12.81;66.02;100638.63;5015238;28;20222;-71
2023/05/15 00:48:46;;;;;;;9.47;7.90;;;13.00;96.40;;;12.84;65.44;100643.63;5017719;28;20191;-71
2023/05/15 00:51:20;;;;;;;9.60;8.73;;;13.20;96.00;;;12.83;65.77;100644.63;5017640;28;20285;-71
2023/05/15 00:53:55;;;;;;;8.97;8.07;;;13.10;96.40;;;12.85;66.07;100637.22;5017586;28;20201;-71
2023/05/15 00:56:31;;;;;;;10.93;8.23;;;13.10;96.40;;;12.74;66.75;100643.03;5017852;28;20198;-71
2023/05/15 00:59:08;;;;;;;8.83;7.90;;;13.00;96.40;;;12.72;66.38;100640.50;5017514;28;20199;-71
2023/05/15 01:01:44;;;;;;;9.00;8.07;;;13.00;96.60;;;12.69;66.91;100638.16;5017043;28;20692;-71
2023/05/15 01:04:17;;;;;;;9.03;8.17;;;12.90;96.60;;;12.74;65.70;100633.09;5017125;28;20561;-71
2023/05/15 01:06:52;;;;;;;11.70;8.20;;;13.00;96.50;;;12.76;66.20;100633.75;5017402;28;20211;-71
2023/05/15 01:09:29;;;;;;;9.07;8.20;;;13.10;96.70;;;12.74;66.55;100633.09;5017088;28;20199;-71
2023/05/15 01:12:04;;;;;;;9.43;8.27;;;13.00;96.60;;;12.53;66.86;100625.69;5017038;28;20199;-71
2023/05/15 01:14:38;;;;;;;9.33;8.23;;;12.80;96.60;;;12.51;66.95;100622.31;5017253;28;20191;-71
2023/05/15 01:17:12;;;;;;;9.13;8.33;;;12.80;96.70;;;12.56;66.92;100627.16;5017213;28;20195;-71
2023/05/15 01:19:50;;;;;;;10.23;7.80;;;12.80;96.80;;;12.54;66.79;100616.59;5017035;28;20285;-71
2023/05/15 01:23:06;;;;;;;8.70;7.90;;;12.80;96.80;;;12.54;67.03;100624.63;5017103;28;20202;-71
2023/05/15 01:26:34;;;;;;;10.07;8.23;;;12.90;96.90;;;12.49;67.55;100615.44;4937280;29;20257;-71
2023/05/15 01:29:15;;;;;;;10.70;8.33;;;12.90;96.70;;;12.51;67.13;100627.69;5009078;28;20214;-71
2023/05/15 01:31:57;;;;;;;8.93;8.10;;;12.80;97.00;;;12.38;67.44;100626.56;5017115;28;20257;-71
2023/05/15 01:34:53;;;;;;;9.60;8.60;;;12.70;96.90;;;12.39;67.04;100618.34;5016909;28;20198;-71
2023/05/15 01:37:32;;;;;;;10.83;8.13;;;12.70;97.10;;;12.41;66.99;100608.25;5016530;28;20206;-71
2023/05/15 01:40:11;;;;;;;9.60;8.57;;;12.70;97.10;;;12.32;67.61;100614.69;5016688;28;20227;-71
2023/05/15 01:42:54;;;;;;;8.80;7.90;;;12.60;97.10;;;12.32;67.59;100611.16;5016965;28;20202;-70
2023/05/15 01:45:31;;;;;;;10.03;7.70;;;12.70;97.10;;;12.28;67.14;100608.00;5016731;28;20199;-70
2023/05/15 01:48:08;;;;;;;8.93;8.03;;;12.60;97.00;;;12.28;66.63;100612.53;5016719;28;20196;-70
2023/05/15 01:50:45;;;;;;;10.50;8.73;;;12.70;96.90;;;12.26;67.01;100604.63;5016523;28;20233;-70
2023/05/15 01:53:21;;;;;;;9.80;8.83;;;12.60;96.90;;;12.26;67.49;100610.00;5016524;28;20191;-70
2023/05/15 01:55:57;;;;;;;9.80;8.80;;;12.50;97.00;;;12.30;67.02;100603.28;5016531;28;20207;-70
2023/05/15 01:58:34;;;;;;;10.83;9.30;;;12.60;97.00;;;12.27;66.77;100595.56;5016359;28;20199;-70
2023/05/15 02:01:09;;;;;;;10.87;9.50;;;12.60;96.70;;;12.30;66.22;100600.59;5016498;28;20234;-70
2023/05/15 02:03:44;;;;;;;10.53;9.43;;;12.70;96.60;;;12.22;67.24;100603.34;5016353;28;20199;-70
2023/05/15 02:06:19;;;;;;;10.43;9.37;;;12.60;97.00;;;12.17;66.69;100606.53;5016324;28;20219;-70
2023/05/15 02:08:57;;;;;;;10.77;9.73;;;12.60;97.00;;;12.20;67.03;100594.59;5016297;28;20195;-70
2023/05/15 02:11:30;;;;;;;10.40;9.30;;;12.50;97.00;;;12.22;67.22;100592.59;5016165;28;20227;-70
2023/05/15 02:14:04;;;;;;;10.30;9.33;;;12.60;97.10;;;12.27;67.59;100600.94;5016183;28;20242;-70
2023/05/15 02:16:37;;;;;;;9.83;8.90;;;12.60;97.10;;;12.21;68.09;100593.59;5016123;28;20250;-70
2023/05/15 02:19:11;;;;;;;10.37;9.37;;;12.60;97.20;;;12.18;68.07;100592.09;5016130;28;20196;-70
2023/05/15 02:21:44;;;;;;;10.67;9.50;;;12.60;97.40;;;12.19;68.03;100587.56;5015912;28;20318;-70
2023/05/15 02:24:17;;;;;;;11.00;9.67;;;12.60;97.40;;;12.20;67.69;100583.84;5015955;28;20198;-70
2023/05/15 02:27:04;;;;;;;11.53;10.40;;;12.60;97.50;;;12.23;68.20;100580.81;5015934;28;20199;-70
2023/05/15 02:29:55;;;;;;;11.17;10.07;;;12.60;97.50;;;12.20;68.32;100576.66;5015800;28;20215;-71
2023/05/15 02:32:43;;;;;;;9.70;8.80;;;12.60;97.70;;;12.10;69.02;100573.34;5015666;28;20211;-70
2023/05/15 02:35:31;;;;;;;11.77;10.57;;;12.50;97.70;;;12.01;69.72;100568.19;5015831;28;20200;-70
2023/05/15 02:38:13;;;;;;;11.03;9.90;;;12.40;98.00;;;12.01;69.65;100569.03;5015719;28;20275;-69
2023/05/15 02:40:50;;;;;;;10.67;9.67;;;12.40;98.30;;;12.00;70.53;100566.50;5015485;28;20238;-69
2023/05/15 02:43:24;;;;;;;11.90;10.70;;;12.40;98.80;;;11.93;71.00;100570.88;5015190;28;20184;-70
2023/05/15 02:45:59;;;;;;;11.60;10.40;;;12.40;98.80;;;11.86;71.09;100569.91;5015611;28;20195;-70
2023/05/15 02:48:33;;;;;;;10.70;9.60;;;12.30;98.80;;;11.91;70.77;100572.91;5015862;28;20195;-70
2023/05/15 02:51:08;;;;;;;11.67;10.47;;;12.30;99.10;;;11.89;70.46;100566.88;5015419;28;20226;-70
2023/05/15 02:53:45;;;;;;;11.57;9.93;;;12.30;98.80;;;11.93;70.08;100563.69;5016029;28;20198;-70
2023/05/15 02:56:18;;;;;;;10.67;9.77;;;12.40;98.60;;;11.89;70.89;100554.31;5015732;28;20191;-70
2023/05/15 02:58:52;;;;;;;11.23;10.07;;;12.30;98.70;;;11.84;70.58;100554.00;5015696;28;20195;-70
2023/05/15 03:01:25;;;;;;;11.13;10.03;;;12.20;98.90;;;11.80;71.64;100558.03;5015218;28;20231;-70
2023/05/15 03:03:58;;;;;;;11.47;10.30;;;12.20;99.10;;;11.76;71.43;100547.81;5015281;28;20282;-70
2023/05/15 03:06:32;;;;;;;12.43;10.03;;;12.10;99.10;;;11.71;71.81;100550.19;5015233;28;20195;-70
2023/05/15 03:09:05;;;;;;;10.47;9.53;;;12.10;99.10;;;11.69;71.92;100553.00;5014682;28;20191;-70
2023/05/15 03:11:38;;;;;;;10.63;9.63;;;12.00;99.20;;;11.68;71.25;100551.31;5014754;28;20227;-70
2023/05/15 03:14:11;;;;;;;11.33;10.23;;;12.10;99.30;;;11.77;70.73;100552.19;5015061;28;20214;-70
2023/05/15 03:16:44;;;;;;;10.73;9.73;;;12.20;99.10;;;11.79;71.25;100552.81;5015037;28;20192;-70
2023/05/15 03:19:18;;;;;;;11.17;10.07;;;12.20;99.00;;;11.73;70.98;100543.63;5014706;28;20192;-70
2023/05/15 03:21:51;;;;;;;11.27;10.07;;;12.20;99.00;;;11.70;71.33;100549.31;5014772;28;20227;-70
2023/05/15 03:24:24;;;;;;;13.33;10.20;;;12.20;99.00;;;11.68;71.43;100541.44;5014571;28;20200;-70
2023/05/15 03:26:58;;;;;;;10.90;9.70;;;12.10;99.00;;;11.66;71.58;100545.28;5014866;28;20246;-70
2023/05/15 03:29:31;;;;;;;11.37;9.93;;;12.00;99.30;;;11.61;72.07;100545.81;5014473;28;20645;-70
2023/05/15 03:32:04;;;;;;;11.50;10.20;;;12.10;99.30;;;11.57;71.53;100541.81;5014524;28;20673;-70
2023/05/15 03:34:38;;;;;;;11.63;10.53;;;11.90;99.50;;;11.62;71.74;100546.66;5014710;28;20188;-70
2023/05/15 03:37:13;;;;;;;13.33;10.23;;;12.00;99.40;;;11.49;71.79;100536.47;5014746;28;20227;-70
2023/05/15 03:39:46;;;;;;;13.70;10.63;;;11.90;99.30;;;11.55;72.12;100535.78;5014579;28;20195;-70
2023/05/15 03:42:22;;;;;;;11.23;10.23;;;12.00;99.70;;;11.51;72.76;100534.44;5014755;28;20214;-70
2023/05/15 03:44:56;;;;;;;11.13;10.03;;;11.90;99.70;;;11.53;72.07;100532.44;5014577;28;20195;-70
2023/05/15 03:47:29;;;;;;;10.87;9.77;;;11.90;99.60;;;11.52;71.98;100536.13;5014543;28;20199;-70
2023/05/15 03:50:02;;;;;;;11.03;9.93;;;11.90;99.50;;;11.53;71.39;100532.44;5014107;28;20778;-70
2023/05/15 03:52:36;;;;;;;10.87;9.60;;;12.00;99.40;;;11.53;71.81;100532.44;5014419;28;20206;-70
2023/05/15 03:55:13;;;;;;;11.33;10.33;;;11.90;99.60;;;11.53;72.66;100534.28;5014410;28;20246;-70
2023/05/15 03:57:46;;;;;;;10.77;9.77;;;12.00;99.70;;;11.51;72.88;100534.44;5014383;28;20198;-70
2023/05/15 04:00:21;;;;;;;11.67;10.57;;;12.00;99.70;;;11.51;72.65;100531.75;5013894;28;20734;-70
2023/05/15 04:02:54;;;;;;;11.60;10.50;;;12.00;99.80;;;11.54;72.77;100539.44;5013919;28;20253;-70
2023/05/15 04:05:27;;;;;;;12.40;11.20;;;12.00;99.80;;;11.50;73.18;100537.31;5014249;28;20261;-70
2023/05/15 04:08:01;;;;;;;11.50;10.50;;;12.00;99.90;;;11.53;72.72;100536.97;5014142;28;20192;-70
2023/05/15 04:10:35;;;;;;;12.27;11.07;;;12.00;99.90;;;11.52;73.06;100541.47;5014125;28;20239;-70
2023/05/15 04:13:08;;;;;;;14.07;12.23;;;12.00;99.90;;;11.55;72.97;100534.94;5014136;28;20187;-70
2023/05/15 04:15:42;;;;;;;14.43;12.27;;;12.00;99.90;;;11.56;72.93;100540.13;5014102;28;20192;-70
2023/05/15 04:18:15;;;;;;;13.70;12.30;;;12.00;99.90;;;11.58;71.96;100539.94;5014070;28;20198;-70
2023/05/15 04:20:49;;;;;;;12.70;11.60;;;12.00;99.70;;;11.61;72.87;100540.44;5013033;28;20227;-70
2023/05/15 04:23:22;;;;;;;14.47;13.00;;;12.10;99.80;;;11.59;73.20;100534.44;5013952;28;20222;-70
2023/05/15 04:25:55;;;;;;;12.73;11.53;;;12.10;99.80;;;11.63;73.11;100534.91;5013947;28;20199;-70
2023/05/15 04:28:29;;;;;;;13.07;11.80;;;12.10;99.80;;;11.65;73.37;100536.41;5013937;28;20192;-70
2023/05/15 04:31:02;;;;;;;13.73;12.33;;;12.20;99.90;;;11.69;72.43;100536.91;5013648;28;20223;-71
2023/05/15 04:33:36;;;;;;;13.80;12.40;;;12.20;99.80;;;11.72;72.90;100538.44;5012492;28;20676;-70
2023/05/15 04:36:11;;;;;;;13.20;11.80;;;12.20;99.90;;;11.69;72.68;100537.75;5013488;28;20538;-70
2023/05/15 04:38:45;;;;;;;13.97;12.53;;;12.20;99.90;;;11.75;72.85;100535.44;5013425;28;20199;-70
2023/05/15 04:41:18;;;;;;;13.97;12.57;;;12.30;99.90;;;11.77;73.16;100536.09;5013669;28;20246;-69
2023/05/15 04:43:51;;;;;;;15.33;12.90;;;12.30;99.90;;;11.80;74.22;100541.94;5013686;28;20195;-70
2023/05/15 04:46:25;;;;;;;14.37;12.47;;;12.30;99.90;;;11.81;73.44;100535.56;5013766;28;20192;-70
2023/05/15 04:48:58;;;;;;;13.77;12.30;;;12.30;99.90;;;11.81;74.00;100542.78;5013733;28;20226;-70
2023/05/15 04:51:32;;;;;;;14.70;12.80;;;12.30;99.90;;;11.85;73.92;100547.59;5013617;28;20282;-71
2023/05/15 04:54:05;;;;;;;12.50;11.27;;;12.40;99.90;;;11.87;73.63;100544.75;5013684;28;20195;-71
2023/05/15 04:56:39;;;;;;;13.10;11.90;;;12.40;99.90;;;11.89;73.04;100538.19;5013651;28;20203;-71
2023/05/15 04:59:12;;;;;;;14.17;12.70;;;12.40;99.90;;;11.96;72.59;100538.34;5013609;28;20246;-71
2023/05/15 05:01:45;;;;;;;13.47;12.20;;;12.50;99.90;;;11.97;73.66;100540.03;5013706;28;20235;-71
2023/05/15 05:04:19;;;;;;;13.70;12.13;;;12.50;99.90;;;12.00;72.62;100540.50;5013534;28;20230;-71
2023/05/15 05:06:52;;;;;;;13.07;11.97;;;12.60;99.80;;;12.04;72.83;100549.06;5013787;28;20192;-69
2023/05/15 05:09:25;;;;;;;15.47;12.43;;;12.60;99.90;;;12.08;73.06;100542.34;5013237;28;20199;-70
2023/05/15 05:12:00;;;;;;;13.23;11.57;;;12.60;99.80;;;12.09;72.31;100542.13;5013524;28;20223;-70
2023/05/15 05:14:34;;;;;;;14.30;12.40;;;12.60;99.40;;;12.11;71.76;100541.97;5013886;28;20191;-70
2023/05/15 05:17:08;;;;;;;14.57;11.93;;;12.70;99.50;;;12.14;72.07;100541.63;5013445;28;20250;-70
2023/05/15 05:19:42;;;;;;;13.97;12.27;;;12.70;99.70;;;12.19;73.33;100542.75;5013344;28;20195;-71
2023/05/15 05:22:15;;;;;;;14.00;12.70;;;12.80;99.90;;;12.26;74.10;100534.84;5013339;28;20222;-71
2023/05/15 05:24:48;;;;;;;12.80;11.70;;;12.80;99.90;;;12.30;74.31;100536.16;5013389;28;20246;-71
2023/05/15 05:27:21;;;;;;;14.57;12.07;;;12.90;99.90;;;12.36;73.23;100530.13;5013631;28;20203;-70
2023/05/15 05:29:54;;;;;;;12.57;11.47;;;12.90;99.90;;;12.40;72.81;100531.41;5013288;28;20231;-71
2023/05/15 05:32:28;;;;;;;11.40;9.90;;;13.00;99.90;;;12.44;71.12;100530.03;5014867;28;20238;-71
2023/05/15 05:35:02;;;;;;;11.23;10.13;;;13.00;99.10;;;12.50;71.31;100532.00;5016953;28;20192;-71
2023/05/15 05:37:35;;;;;;;12.03;9.83;;;13.10;98.90;;;12.58;69.66;100531.97;5017036;28;20187;-69
2023/05/15 05:40:16;;;;;;;11.03;10.03;;;13.20;98.50;;;12.64;69.95;100530.41;5016823;28;20231;-71
2023/05/15 05:42:50;;;;;;;11.63;10.50;;;13.20;98.40;;;12.72;69.85;100535.72;5016612;28;20694;-69
2023/05/15 05:45:24;;;;;;;10.87;9.97;;;13.30;98.30;;;12.75;69.71;100531.84;5016925;28;20570;-70
2023/05/15 05:48:00;;;;;;;10.37;9.27;;;13.30;98.40;;;12.80;69.34;100527.63;5016552;28;20669;-70
2023/05/15 05:50:33;;;;;;;9.47;8.57;;;13.40;98.20;;;12.87;70.26;100519.69;5017192;28;20277;-70
2023/05/15 05:53:07;;;;;;;10.20;9.03;;;13.40;98.40;;;12.92;69.62;100520.78;5016646;28;20192;-70
2023/05/15 05:55:40;;;;;;;9.53;8.40;;;13.50;98.60;;;13.02;68.27;100531.28;5017205;28;20196;-70
2023/05/15 05:58:14;;;;;;;10.03;8.13;;;13.60;97.80;;;13.10;68.45;100523.19;5016659;28;20196;-70
2023/05/15 06:00:59;;;;;;;9.10;8.20;;;13.70;98.20;;;13.18;68.90;100525.81;5016511;28;20270;-71
2023/05/15 06:03:33;;;;;;;8.87;7.40;;;13.80;97.60;;;13.26;67.71;100525.72;5016499;28;20234;-71
2023/05/15 06:06:08;;;;;;;8.90;7.50;;;13.80;97.40;;;13.43;66.44;100529.09;5016520;28;20191;-71
2023/05/15 06:08:41;;;;;;;9.17;7.80;;;14.00;96.60;;;13.49;66.28;100523.81;5016385;28;20192;-69
2023/05/15 06:11:14;;;;;;;10.50;7.63;;;14.10;96.40;;;13.52;67.58;100522.63;5016692;28;20227;-70
2023/05/15 06:13:48;;;;;;;7.47;6.77;;;14.10;97.10;;;13.56;68.05;100519.34;5016187;28;20594;-70
2023/05/15 06:16:21;;;;;;;8.13;7.20;;;14.20;97.20;;;13.62;67.26;100521.34;5015948;28;20203;-70
2023/05/15 06:18:55;;;;;;;8.80;7.13;;;14.20;97.00;;;13.73;64.90;100512.78;5015953;28;20637;-70
2023/05/15 06:21:28;;;;;;;8.27;6.50;;;14.30;95.50;;;13.79;64.73;100516.59;5016087;28;20274;-70
2023/05/15 06:24:01;;;;;;;6.77;6.17;;;14.40;95.80;;;13.89;65.61;100519.00;5016184;28;20218;-70
2023/05/15 06:26:36;;;;;;;9.00;6.53;;;14.50;95.90;;;13.94;65.26;100519.28;5016308;28;20192;-70
2023/05/15 06:29:09;;;;;;;8.60;6.50;;;14.50;95.80;;;14.05;64.98;100513.41;5016009;28;20245;-70
2023/05/15 06:31:42;;;;;;;6.70;6.10;;;14.70;95.50;;;14.14;63.98;100514.97;5015912;28;20223;-70
2023/05/15 06:34:16;;;;;;;7.33;6.50;;;14.70;95.40;;;14.25;63.55;100519.84;5015821;28;20604;-70
2023/05/15 06:36:49;;;;;;;9.67;6.33;;;14.80;95.10;;;14.37;62.20;100512.16;5015876;28;20191;-71
2023/05/15 06:39:22;;;;;;;7.70;6.00;;;14.90;94.30;;;14.38;62.78;100514.69;5015628;28;20640;-71
2023/05/15 06:42:00;;;;;;;9.13;6.17;;;15.00;94.40;;;14.44;63.19;100510.38;5015668;28;20227;-71
2023/05/15 06:44:34;;;;;;;7.37;5.70;;;15.00;94.60;;;14.52;61.76;100510.25;5014737;28;20211;-71
2023/05/15 06:47:09;;;;;;;7.13;5.40;;;15.10;93.80;;;14.59;60.36;100511.13;5015775;28;20191;-71
2023/05/15 06:49:43;;;;;;;9.33;5.80;;;15.20;92.90;;;14.61;62.30;100509.94;5015627;28;20199;-71
2023/05/15 06:52:16;;;;;;;10.90;6.67;;;15.20;94.20;;;14.70;62.15;100514.16;5015765;28;20211;-71
2023/05/15 06:54:50;;;;;;;7.57;6.83;;;15.30;94.00;;;14.73;64.10;100511.09;5015564;28;20187;-72
2023/05/15 06:57:24;;;;;;;8.23;7.30;;;15.30;95.00;;;14.84;64.13;100508.91;5015139;28;20602;-70
2023/05/15 06:59:57;;;;;;;11.17;6.57;;;15.40;95.20;;;14.96;62.04;100502.81;5015457;28;20227;-71
2023/05/15 07:02:30;;;;;;;9.17;6.47;;;15.50;94.40;;;14.97;63.14;100504.47;5015423;28;20195;-71
2023/05/15 07:05:04;;;;;;;7.40;6.60;;;15.50;94.60;;;15.02;61.05;100495.81;5015103;28;20562;-70
2023/05/15 07:07:38;;;;;;;6.63;6.03;;;15.60;93.60;;;15.10;61.69;100493.78;5015366;28;20194;-70
2023/05/15 07:10:13;;;;;;;6.73;6.00;;;15.60;94.00;;;15.06;61.67;100503.31;5015226;28;20235;-71
2023/05/15 07:12:46;;;;;;;6.90;6.10;;;15.60;93.90;;;15.12;61.22;100501.69;5015266;28;20192;-70
2023/05/15 07:15:19;;;;;;;8.23;5.97;;;15.70;93.80;;;15.20;59.75;100504.25;5015111;28;20633;-70
2023/05/15 07:17:53;;;;;;;7.83;5.70;;;15.80;93.30;;;15.37;57.01;100497.53;5015283;28;20633;-70
2023/05/15 07:20:27;;;;;;;7.60;5.10;;;15.90;91.50;;;15.39;59.80;100497.31;5015006;28;20231;-71
2023/05/15 07:23:04;;;;;;;6.23;5.03;;;15.90;92.60;;;15.40;59.37;100499.84;5014884;28;20274;-71
2023/05/15 07:25:38;;;;;;;7.83;5.23;;;15.90;92.60;;;15.44;58.32;100501.09;5014808;28;20212;-71
2023/05/15 07:28:12;;;;;;;6.80;5.20;;;16.00;92.10;;;15.63;57.74;100497.72;5015093;28;20224;-71
2023/05/15 07:30:45;;;;;;;12.43;5.37;;;16.10;91.70;;;15.60;58.99;100498.13;5014768;28;20286;-71
2023/05/15 07:33:18;;;;;;;6.63;4.67;;;16.20;92.00;;;15.66;57.01;100500.00;5014308;28;20705;-71
2023/05/15 07:35:52;;;;;;;8.13;5.40;;;16.20;91.30;;;15.70;56.77;100500.44;5014709;28;20191;-70
2023/05/15 07:38:25;;;;;;;6.43;5.33;;;16.30;91.10;;;15.75;56.63;100492.59;5014364;28;20192;-70
2023/05/15 07:40:59;;;;;;;5.30;4.90;;;16.30;90.50;;;15.82;55.11;100489.94;5014332;28;20742;-70
2023/05/15 07:43:32;;;;;;;8.40;5.30;;;16.30;90.00;;;15.85;56.23;100481.44;5014226;28;20672;-70
2023/05/15 07:46:06;;;;;;;7.53;4.80;;;16.40;91.00;;;15.92;55.15;100482.28;5014604;28;20195;-71
2023/05/15 07:48:39;;;;;;;7.93;5.27;;;16.40;90.30;;;15.98;52.78;100486.88;5014507;28;20219;-71
2023/05/15 07:51:12;;;;;;;8.33;5.17;;;16.50;87.00;;;16.03;53.39;100490.63;5014380;28;20227;-71
2023/05/15 07:53:46;;;;;;;6.57;4.90;;;16.50;87.70;;;16.12;53.45;100483.19;5014438;28;20189;-71
2023/05/15 07:56:19;;;;;;;6.30;4.93;;;16.60;88.20;;;16.21;55.84;100481.97;5013933;28;20695;-71
2023/05/15 07:58:52;;;;;;;8.17;4.90;;;16.70;90.20;;;16.32;55.65;100484.09;5014317;28;20191;-71
2023/05/15 08:01:26;;;;;;;7.70;5.33;;;16.80;90.30;;;16.60;52.73;100482.13;5014250;28;20314;-71
2023/05/15 08:03:59;;;;;;;5.83;5.00;;;17.10;88.20;;;16.72;53.01;100472.34;5014173;28;20355;-71
2023/05/15 08:06:33;;;;;;;6.40;5.23;;;17.30;85.50;;;16.88;50.27;100473.00;5013912;28;20627;-71
2023/05/15 08:09:06;;;;;;;6.33;5.20;;;17.30;83.60;;;16.89;52.49;100467.38;5014221;28;20211;-71
2023/05/15 08:11:40;;;;;;;5.87;5.13;;;17.40;86.40;;;16.99;53.51;100472.34;5014263;28;20270;-71
2023/05/15 08:14:13;;;;;;;8.07;4.93;;;17.50;87.80;;;17.03;50.72;100460.06;5013856;28;20184;-71
2023/05/15 08:16:46;;;;;;;8.70;4.80;;;17.50;84.60;;;17.06;51.06;100470.47;5014096;28;20192;-71
2023/05/15 08:19:20;;;;;;;7.20;4.97;;;17.50;84.00;;;17.08;52.84;100468.41;5014128;28;20192;-71
2023/05/15 08:21:54;;;;;;;9.70;5.40;;;17.50;85.50;;;17.18;52.44;100466.13;5014014;28;20237;-71
2023/05/15 08:24:27;;;;;;;7.00;5.13;;;17.70;85.70;;;17.22;50.28;100460.09;5013584;28;20680;-71
2023/05/15 08:27:01;;;;;;;9.17;4.87;;;17.70;83.00;;;17.32;52.01;100464.22;5013995;28;20196;-71
2023/05/15 08:29:35;;;;;;;6.37;5.03;;;17.80;85.10;;;17.48;50.67;100461.06;5014009;28;20196;-71
2023/05/15 08:32:13;;;;;;;6.90;5.03;;;17.90;83.10;;;17.55;52.42;100460.00;5013744;28;20195;-71
2023/05/15 08:34:46;;;;;;;6.33;4.53;;;18.00;84.40;;;17.63;53.12;100456.28;5013864;28;20194;-71
2023/05/15 08:37:19;;;;;;;6.67;4.70;;;18.10;86.30;;;17.70;51.32;100462.50;5013518;28;20633;-71
2023/05/15 08:39:53;;;;;;;7.37;4.80;;;18.20;83.20;;;17.82;50.11;100455.38;5013711;28;20194;-71
2023/05/15 08:42:32;;;;;;;7.47;5.27;;;18.20;82.90;;;17.82;51.79;100458.06;5013798;28;20192;-71
2023/05/15 08:45:09;;;;;;;7.27;4.80;;;18.30;85.50;;;17.85;52.12;100454.09;5013437;28;20290;-71
2023/05/15 08:47:45;;;;;;;7.50;4.50;;;18.30;85.10;;;17.93;51.71;100452.00;5013716;28;20187;-71
2023/05/15 08:50:21;;;;;;;5.70;4.67;;;18.40;84.50;;;18.05;51.48;100449.41;5013593;28;20282;-71
2023/05/15 08:52:57;;;;;;;5.53;4.80;;;18.50;83.30;;;18.07;50.39;100453.59;5013644;28;20190;-71
2023/05/15 08:55:30;;;;;;;7.47;5.20;;;18.50;82.10;;;18.14;52.44;100442.72;5013622;28;20257;-71
2023/05/15 08:58:05;;;;;;;7.83;5.53;;;18.60;84.50;;;18.29;51.44;100445.16;5013619;28;20196;-71
2023/05/15 09:00:39;;;;;;;10.07;5.27;;;18.70;84.20;;;18.32;50.96;100444.72;5013572;28;20227;-71
2023/05/15 09:03:18;;;;;;;6.87;5.70;;;18.70;83.00;;;18.45;51.19;100441.91;5013267;28;20199;-70
2023/05/15 09:05:55;;;;;;;7.83;5.80;;;18.80;83.30;;;18.46;50.08;100444.38;5013464;28;20211;-70
2023/05/15 09:08:32;;;;;;;8.17;5.57;;;18.90;81.70;;;18.44;49.19;100437.53;5017051;28;20191;-71
2023/05/15 09:11:07;;;;;;;6.00;5.33;;;18.80;80.30;;;18.43;51.10;100444.84;5017355;28;20238;-71
2023/05/15 09:13:41;;;;;;;6.37;5.53;;;18.80;82.00;;;18.51;51.12;100443.78;5017581;28;20213;-71
2023/05/15 09:16:14;;;;;;;6.57;5.87;;;18.90;83.20;;;18.52;51.15;100440.84;5017550;28;20199;-71
2023/05/15 09:18:49;;;;;;;8.30;5.90;;;18.90;82.20;;;18.60;51.12;100429.72;5017291;28;20245;-71
2023/05/15 09:21:31;;;;;;;6.07;5.47;;;19.00;83.10;;;18.76;51.40;100432.97;5017188;28;20265;-71
2023/05/15 09:24:23;;;;;;;7.97;5.33;;;19.20;82.80;;;18.82;51.80;100430.19;5016780;28;20555;-71
2023/05/15 09:27:08;;;;;;;7.30;5.47;;;19.20;83.10;;;18.94;49.17;100430.31;5017177;28;20188;-71
2023/05/15 09:29:42;;;;;;;10.83;6.00;;;19.30;80.80;;;19.02;50.57;100432.72;5017026;28;20199;-70
2023/05/15 09:32:18;;;;;;;6.70;5.60;;;19.40;81.00;;;19.10;48.95;100437.88;5017022;28;20207;-70
2023/05/15 09:34:52;;;;;;;10.93;6.13;;;19.50;80.30;;;19.12;48.87;100439.31;5016727;28;20623;-71
2023/05/15 09:37:36;;;;;;;5.93;5.30;;;19.50;80.10;;;19.19;51.03;100431.09;5016640;28;20188;-71
2023/05/15 09:40:18;;;;;;;7.60;5.27;;;19.60;82.20;;;19.27;46.08;100430.81;5016784;28;20726;-71
2023/05/15 09:42:57;;;;;;;7.43;5.13;;;19.70;77.00;;;19.39;49.29;100431.72;5016838;28;20196;-71
2023/05/15 09:45:31;;;;;;;6.90;5.10;;;19.80;79.90;;;19.45;47.07;100430.03;5016819;28;20218;-72
2023/05/15 09:48:10;;;;;;;6.33;4.90;;;19.80;76.10;;;19.59;46.26;100426.94;5016475;28;20191;-72
2023/05/15 09:50:45;;;;;;;7.57;5.17;;;19.90;76.70;;;19.70;46.59;100426.19;5016584;28;20277;-72
2023/05/15 09:53:18;;;;;;;7.00;4.90;;;20.10;75.90;;;19.77;45.85;100427.97;5016356;28;20597;-72
2023/05/15 09:55:55;;;;;;;6.77;4.60;;;20.10;75.20;;;19.83;45.58;100427.09;5016680;28;20191;-72
2023/05/15 09:58:28;;;;;;;5.23;4.73;;;20.20;74.50;;;19.85;45.79;100424.97;5016605;28;20229;-72
2023/05/15 10:01:10;;;;;;;9.83;4.70;;;20.10;74.00;;;20.04;44.56;100408.41;5016902;28;20231;-72
2023/05/15 10:03:45;;;;;;;5.73;4.60;;;20.30;72.40;;;20.11;43.74;100417.28;5016243;28;20644;-73
2023/05/15 10:06:23;;;;;;;7.50;4.17;;;20.40;70.80;;;20.12;43.90;100415.41;5014439;28;20241;-72
2023/05/15 10:08:57;;;;;;;6.67;4.43;;;20.40;70.50;;;20.16;44.11;100411.19;5015131;28;20200;-72
2023/05/15 10:11:33;;;;;;;5.87;4.47;;;20.50;71.30;;;20.28;43.11;100414.78;5015741;28;20242;-72
2023/05/15 10:14:09;;;;;;;4.63;4.20;;;20.60;70.00;;;20.44;43.97;100414.16;5014779;28;20195;-73
2023/05/15 10:16:43;;;;;;;6.43;4.20;;;20.80;69.30;;;20.56;43.32;100406.81;5015475;28;20282;-70
2023/05/15 10:19:19;;;;;;;6.07;4.83;;;20.90;68.10;;;20.59;39.86;100403.63;5014505;28;20195;-70
2023/05/15 10:21:56;;;;;;;5.73;4.40;;;20.90;63.50;;;20.72;42.13;100403.41;5015998;28;20262;-71
2023/05/15 10:24:33;;;;;;;6.13;4.33;;;21.00;65.60;;;20.80;39.68;100406.84;5015925;28;20202;-71
2023/05/15 10:27:09;;;;;;;4.90;4.40;;;21.10;64.20;;;20.90;39.63;100396.22;5016278;28;20202;-71
2023/05/15 10:29:44;;;;;;;6.23;4.37;;;21.20;63.40;;;21.03;40.15;100409.59;5015555;28;20652;-71
2023/05/15 10:32:18;;;;;;;7.77;4.50;;;21.30;64.00;;;21.06;41.40;100400.97;5015424;28;20191;-71
2023/05/15 10:34:53;;;;;;;4.70;3.80;;;21.40;64.50;;;21.15;42.50;100403.13;5015820;28;20191;-71
2023/05/15 10:37:30;;;;;;;5.07;4.17;;;21.50;66.60;;;21.23;40.34;100393.78;5015771;28;20199;-71
2023/05/15 10:40:07;;;;;;;7.40;4.87;;;21.50;64.00;;;21.33;41.51;100391.28;5015615;28;20231;-71